Time;durP1;ratioP1;P1;durP2;ratioP2;P2;SDS_P1;SDS_P2;PMS_P1;PMS_P2;Temp;Humidity;BMP_temperature;BMP_pressure;BME280_temperature;BME280_humidity;BME280_pressure;Samples;Min_cycle;Max_cycle;Signal;HPM_P1;HPM_P2
2022/01/17 00:02:19;;;;;;;30.73;18.87;;;5.60;99.90;;;;;;5099641;29;21029;-50
2022/01/17 00:04:49;;;;;;;30.57;18.90;;;5.50;99.90;;;;;;5087874;29;20194;-51
2022/01/17 00:07:20;;;;;;;38.77;18.83;;;5.60;99.90;;;;;;5104343;29;20461;-51
2022/01/17 00:09:50;;;;;;;37.40;19.73;;;5.60;99.90;;;;;;5071665;29;20635;-51
2022/01/17 00:12:22;;;;;;;34.40;20.17;;;5.60;99.90;;;;;;5104202;29;20220;-49
2022/01/17 00:14:55;;;;;;;29.30;17.23;;;5.60;99.90;;;;;;5103628;29;20196;-51
2022/01/17 00:17:37;;;;;;;31.03;17.53;;;5.60;99.90;;;;;;5105400;29;20507;-50
2022/01/17 00:20:10;;;;;;;36.03;19.50;;;5.60;99.90;;;;;;5101385;29;20469;-50
2022/01/17 00:22:41;;;;;;;29.13;15.83;;;5.70;99.90;;;;;;5108411;29;20520;-50
2022/01/17 00:25:11;;;;;;;30.87;16.53;;;5.70;99.90;;;;;;5103805;29;20529;-50
2022/01/17 00:27:42;;;;;;;36.23;14.90;;;5.70;99.90;;;;;;5107613;29;20300;-50
2022/01/17 00:30:13;;;;;;;20.77;14.90;;;5.70;99.90;;;;;;5107048;29;20183;-50
2022/01/17 00:32:43;;;;;;;23.77;12.83;;;5.70;99.90;;;;;;5104390;29;20194;-50
2022/01/17 00:35:15;;;;;;;26.47;14.07;;;5.70;99.90;;;;;;5107149;29;20269;-51
2022/01/17 00:37:46;;;;;;;24.77;13.00;;;5.70;99.90;;;;;;5099211;29;20218;-52
2022/01/17 00:40:17;;;;;;;22.33;12.93;;;5.80;99.90;;;;;;5086573;29;20837;-52
2022/01/17 00:42:47;;;;;;;24.57;11.40;;;5.80;99.90;;;;;;5104490;29;20197;-50
2022/01/17 00:45:24;;;;;;;19.00;9.83;;;5.80;99.90;;;;;;5095324;29;20237;-49
2022/01/17 00:47:56;;;;;;;16.93;10.50;;;5.80;99.90;;;;;;5101307;29;20716;-50
2022/01/17 00:50:28;;;;;;;27.77;12.17;;;5.90;99.90;;;;;;5105454;29;20712;-50
2022/01/17 00:53:03;;;;;;;23.17;11.20;;;5.90;99.90;;;;;;5101442;29;20906;-51
2022/01/17 00:55:35;;;;;;;27.27;10.97;;;5.80;99.90;;;;;;5087347;29;20444;-50
2022/01/17 00:58:06;;;;;;;18.53;11.50;;;5.90;99.90;;;;;;5096115;29;20463;-50
2022/01/17 01:00:37;;;;;;;16.37;9.03;;;5.90;99.90;;;;;;5103884;29;20441;-51
2022/01/17 01:03:08;;;;;;;13.23;8.63;;;5.90;99.90;;;;;;5102795;29;20445;-51
2022/01/17 01:05:39;;;;;;;21.53;9.40;;;6.00;99.90;;;;;;5107576;29;20225;-51
2022/01/17 01:08:10;;;;;;;19.80;9.60;;;6.00;99.90;;;;;;5104312;29;20477;-50
2022/01/17 01:10:41;;;;;;;20.27;8.53;;;5.90;99.90;;;;;;5103297;29;20902;-50
2022/01/17 01:13:11;;;;;;;17.37;8.50;;;6.00;99.90;;;;;;5108557;29;20185;-51
2022/01/17 01:28:54;;;;;;;14.00;8.43;;;6.10;99.90;;;;;;5104353;29;20448;-50
2022/01/17 01:31:39;;;;;;;15.50;6.97;;;6.20;99.90;;;;;;5101971;29;20451;-50
2022/01/17 01:34:11;;;;;;;15.37;6.30;;;6.20;99.90;;;;;;5103108;29;20193;-50
2022/01/17 01:36:42;;;;;;;11.40;6.53;;;6.20;99.90;;;;;;5080716;29;20477;-49
2022/01/17 01:39:12;;;;;;;17.83;7.00;;;6.10;99.90;;;;;;5102080;29;20766;-50
2022/01/17 01:41:43;;;;;;;12.80;6.17;;;6.10;99.90;;;;;;5103384;29;20477;-52
2022/01/17 01:44:18;;;;;;;15.13;5.50;;;6.10;99.90;;;;;;5101877;29;20206;-50
2022/01/17 01:46:51;;;;;;;13.77;5.23;;;6.10;99.90;;;;;;5087519;29;20823;-51
2022/01/17 01:49:23;;;;;;;12.20;5.30;;;6.00;99.90;;;;;;5078770;29;20444;-49
2022/01/17 01:51:53;;;;;;;10.33;4.70;;;6.00;99.90;;;;;;5102118;29;20445;-51
2022/01/17 01:54:24;;;;;;;8.03;3.07;;;6.00;99.90;;;;;;5103756;29;20493;-50
2022/01/17 01:56:55;;;;;;;6.57;2.80;;;6.00;99.90;;;;;;5101710;29;20657;-51
2022/01/17 01:59:25;;;;;;;8.13;2.67;;;6.00;99.90;;;;;;5086634;29;20473;-50
2022/01/17 02:01:56;;;;;;;4.83;2.30;;;6.00;99.90;;;;;;5084529;29;20198;-49
2022/01/17 02:04:27;;;;;;;12.50;2.97;;;5.90;99.90;;;;;;5083818;29;20189;-49
2022/01/17 02:06:58;;;;;;;5.90;2.17;;;5.90;99.90;;;;;;5082162;29;20205;-50
2022/01/17 02:09:28;;;;;;;12.80;2.10;;;5.80;99.90;;;;;;5100717;29;20193;-50
2022/01/17 02:11:59;;;;;;;1.73;1.63;;;5.70;99.90;;;;;;5088001;29;20236;-50
2022/01/17 02:14:29;;;;;;;3.37;1.93;;;5.60;99.90;;;;;;5103247;29;20220;-50
2022/01/17 02:17:04;;;;;;;12.70;2.37;;;5.50;99.90;;;;;;5102175;29;20209;-50
2022/01/17 02:19:44;;;;;;;1.90;1.50;;;5.50;99.90;;;;;;5081663;29;20239;-49
2022/01/17 02:22:15;;;;;;;14.53;2.33;;;5.30;99.90;;;;;;5099448;29;20903;-50
2022/01/17 02:24:46;;;;;;;10.40;2.17;;;5.30;99.90;;;;;;5084515;29;20477;-50
2022/01/17 02:27:16;;;;;;;10.00;1.77;;;5.30;99.90;;;;;;5086054;29;20235;-50
2022/01/17 02:29:47;;;;;;;4.23;1.00;;;5.30;99.90;;;;;;5099065;29;20947;-50
2022/01/17 02:32:18;;;;;;;12.07;2.17;;;5.30;99.90;;;;;;5104359;29;20611;-50
2022/01/17 02:34:48;;;;;;;3.90;0.93;;;5.40;99.90;;;;;;5099620;29;20242;-50
2022/01/17 02:37:19;;;;;;;8.90;1.67;;;5.30;99.90;;;;;;5100993;29;20223;-49
2022/01/17 02:39:49;;;;;;;16.20;1.97;;;5.40;99.90;;;;;;5089487;29;20237;-50
2022/01/17 02:42:21;;;;;;;18.67;3.13;;;5.40;99.90;;;;;;5102355;29;20188;-52
2022/01/17 02:44:55;;;;;;;8.03;2.27;;;5.40;99.90;;;;;;5086430;29;20182;-50
2022/01/17 02:47:26;;;;;;;5.70;1.47;;;5.50;99.90;;;;;;5105421;29;20467;-50
2022/01/17 02:49:56;;;;;;;8.83;2.10;;;5.50;99.90;;;;;;5099869;29;20546;-52
2022/01/17 02:52:27;;;;;;;7.53;1.63;;;5.50;99.90;;;;;;5099079;29;20194;-51
2022/01/17 02:54:57;;;;;;;7.93;1.53;;;5.60;99.90;;;;;;5101713;29;20669;-51
2022/01/17 02:57:32;;;;;;;8.80;2.10;;;5.60;99.90;;;;;;5105949;29;20238;-51
2022/01/17 03:00:04;;;;;;;7.00;1.70;;;5.60;99.90;;;;;;5087579;29;20719;-51
2022/01/17 03:02:34;;;;;;;8.47;1.43;;;5.70;99.90;;;;;;5097414;29;20976;-52
2022/01/17 03:05:09;;;;;;;14.90;2.03;;;5.70;99.90;;;;;;5099269;29;20437;-51
2022/01/17 03:07:39;;;;;;;7.10;2.20;;;5.70;99.90;;;;;;5102486;29;20247;-51
2022/01/17 03:10:19;;;;;;;10.93;1.63;;;5.70;99.90;;;;;;5100774;29;20448;-51
2022/01/17 03:12:50;;;;;;;4.10;1.30;;;5.70;99.90;;;;;;5101395;29;20675;-50
2022/01/17 03:15:21;;;;;;;7.60;1.60;;;5.70;99.90;;;;;;5082983;29;20452;-51
2022/01/17 03:17:53;;;;;;;1.80;1.30;;;5.80;99.90;;;;;;5097047;29;20229;-50
2022/01/17 03:20:23;;;;;;;11.70;2.23;;;5.80;99.90;;;;;;5103919;29;20476;-52
2022/01/17 03:22:54;;;;;;;16.53;2.20;;;5.80;99.90;;;;;;5100611;29;20473;-51
2022/01/17 03:25:25;;;;;;;6.93;1.53;;;5.80;99.90;;;;;;5101439;29;20200;-51
2022/01/17 03:27:58;;;;;;;4.90;1.43;;;5.80;99.90;;;;;;5093937;29;20465;-51
2022/01/17 03:30:30;;;;;;;11.80;2.73;;;5.80;99.90;;;;;;5102733;29;20235;-49
2022/01/17 03:33:09;;;;;;;4.73;1.40;;;5.80;99.90;;;;;;5100680;29;20492;-51
2022/01/17 03:35:40;;;;;;;3.07;1.47;;;5.80;99.90;;;;;;5100661;29;20437;-50
2022/01/17 03:38:13;;;;;;;12.27;1.90;;;5.80;99.90;;;;;;5123711;23;20615;-50
2022/01/17 03:40:50;;;;;;;5.23;1.57;;;5.80;99.90;;;;;;5120157;28;20445;-48
2022/01/17 03:43:22;;;;;;;5.93;1.53;;;5.80;99.90;;;;;;5133026;28;20451;-48
2022/01/17 03:45:53;;;;;;;9.77;2.03;;;5.70;99.90;;;;;;5125198;28;20496;-47
2022/01/17 03:48:23;;;;;;;8.23;1.60;;;5.70;99.90;;;;;;5120846;28;20500;-49
2022/01/17 03:50:55;;;;;;;8.27;1.80;;;5.70;99.90;;;;;;5118960;29;20225;-47
2022/01/17 03:53:26;;;;;;;10.77;2.20;;;5.70;99.90;;;;;;5104142;29;20192;-47
2022/01/17 03:55:57;;;;;;;7.30;1.67;;;5.70;99.90;;;;;;5103399;29;21021;-49
2022/01/17 03:58:28;;;;;;;7.23;2.27;;;5.80;99.90;;;;;;5123593;29;20480;-48
2022/01/17 04:01:01;;;;;;;6.50;2.03;;;5.80;99.90;;;;;;5121525;28;20552;-48
2022/01/17 04:03:32;;;;;;;8.97;2.23;;;5.80;99.90;;;;;;5128819;28;20234;-49
2022/01/17 04:06:03;;;;;;;10.10;1.10;;;5.80;99.90;;;;;;5121627;29;20430;-47
2022/01/17 04:08:34;;;;;;;13.97;2.43;;;5.80;99.90;;;;;;5119259;28;20219;-49
2022/01/17 04:11:04;;;;;;;13.70;2.20;;;5.80;99.90;;;;;;5103804;29;20184;-47
2022/01/17 04:13:36;;;;;;;12.40;2.00;;;5.80;99.90;;;;;;5119751;29;20518;-48
2022/01/17 04:16:06;;;;;;;7.60;2.23;;;5.80;99.90;;;;;;5124513;28;20672;-49
2022/01/17 04:18:37;;;;;;;7.20;1.67;;;5.80;99.90;;;;;;5119388;28;20474;-48
2022/01/17 04:21:07;;;;;;;21.30;2.43;;;5.80;99.90;;;;;;5090328;29;20547;-48
2022/01/17 04:23:38;;;;;;;9.87;2.23;;;5.80;99.90;;;;;;5118528;29;20197;-47
2022/01/17 04:26:08;;;;;;;7.57;2.00;;;5.80;99.90;;;;;;5105213;29;20184;-47
2022/01/17 04:28:39;;;;;;;20.97;2.60;;;5.80;99.90;;;;;;5120663;28;20253;-47
2022/01/17 04:31:09;;;;;;;12.10;2.00;;;5.80;99.90;;;;;;5108416;29;20202;-49
2022/01/17 04:33:40;;;;;;;8.13;1.83;;;5.80;99.90;;;;;;5122704;29;20188;-47
2022/01/17 04:36:10;;;;;;;11.07;2.37;;;5.80;99.90;;;;;;5122887;29;20214;-48
2022/01/17 04:38:41;;;;;;;12.67;2.33;;;5.70;99.90;;;;;;5124639;28;20255;-48
2022/01/17 04:41:15;;;;;;;9.10;2.60;;;5.70;99.90;;;;;;5123736;28;21211;-48
2022/01/17 04:46:36;;;;;;;9.87;1.80;;;5.80;99.90;;;;;;5074922;29;20951;-48
2022/01/17 04:49:06;;;;;;;8.53;1.83;;;5.70;99.90;;;;;;5123960;28;20502;-49
2022/01/17 04:51:38;;;;;;;8.07;1.57;;;5.70;99.90;;;;;;5120459;28;20191;-48
2022/01/17 04:56:57;;;;;;;8.80;2.07;;;5.70;99.90;;;;;;5121127;29;20551;-48
2022/01/17 04:59:28;;;;;;;10.60;1.77;;;5.80;99.90;;;;;;5120216;28;20475;-49
2022/01/17 05:01:58;;;;;;;8.07;2.13;;;5.70;99.90;;;;;;5122689;28;20181;-47
2022/01/17 05:04:29;;;;;;;11.27;1.77;;;5.80;99.90;;;;;;5125275;29;20223;-49
2022/01/17 05:07:00;;;;;;;3.60;1.50;;;5.70;99.90;;;;;;5103701;29;20299;-48
2022/01/17 05:09:30;;;;;;;8.40;1.97;;;5.70;99.90;;;;;;5124486;29;20268;-49
2022/01/17 05:12:01;;;;;;;16.23;2.50;;;5.70;99.90;;;;;;5124233;28;20189;-48
2022/01/17 05:14:31;;;;;;;9.77;1.57;;;5.70;99.90;;;;;;5124729;28;20184;-49
2022/01/17 05:17:20;;;;;;;11.17;1.53;;;5.70;99.90;;;;;;5122270;29;20621;-48
2022/01/17 05:19:55;;;;;;;8.87;2.43;;;5.60;99.90;;;;;;5121611;29;20212;-52
2022/01/17 05:22:31;;;;;;;8.50;2.10;;;5.70;99.90;;;;;;5122263;28;20535;-51
2022/01/17 05:25:07;;;;;;;7.33;1.87;;;5.70;99.90;;;;;;5121849;28;20435;-47
2022/01/17 05:27:39;;;;;;;9.27;2.20;;;5.70;99.90;;;;;;5122582;28;20759;-49
2022/01/17 05:30:13;;;;;;;10.67;2.47;;;5.70;99.90;;;;;;5122686;28;20750;-48
2022/01/17 05:32:44;;;;;;;4.93;1.70;;;5.70;99.90;;;;;;5130474;28;20444;-47
2022/01/17 05:35:15;;;;;;;8.17;1.77;;;5.70;99.90;;;;;;5122497;28;20455;-47
2022/01/17 05:37:47;;;;;;;6.93;1.43;;;5.70;99.90;;;;;;5111384;29;20479;-49
2022/01/17 05:40:18;;;;;;;12.73;2.40;;;5.80;99.90;;;;;;5125277;29;20479;-49
2022/01/17 05:42:48;;;;;;;6.67;1.90;;;5.80;99.90;;;;;;5110148;29;20812;-48
2022/01/17 05:45:19;;;;;;;9.87;2.20;;;5.80;99.90;;;;;;5123454;28;20443;-47
2022/01/17 05:47:50;;;;;;;12.33;3.10;;;5.80;99.90;;;;;;5104903;29;20213;-49
2022/01/17 05:50:20;;;;;;;7.93;1.30;;;5.80;99.90;;;;;;5123350;29;20453;-47
2022/01/17 05:52:51;;;;;;;12.80;2.10;;;5.80;99.90;;;;;;5115826;28;20560;-47
2022/01/17 05:55:21;;;;;;;14.70;1.77;;;5.80;99.90;;;;;;5121813;29;20653;-48
2022/01/17 05:57:52;;;;;;;23.67;2.63;;;5.80;99.90;;;;;;5123862;28;20268;-48
2022/01/17 06:00:23;;;;;;;10.77;2.17;;;5.70;99.90;;;;;;5116270;29;20251;-49
2022/01/17 06:02:53;;;;;;;5.47;1.60;;;5.80;99.90;;;;;;5118985;29;20181;-48
2022/01/17 06:05:24;;;;;;;12.17;2.27;;;5.80;99.90;;;;;;5122260;29;20192;-47
2022/01/17 06:07:54;;;;;;;13.20;2.60;;;5.80;99.90;;;;;;5119297;28;20205;-47
2022/01/17 06:10:25;;;;;;;5.83;1.90;;;5.90;99.90;;;;;;5116959;29;20225;-48
2022/01/17 06:12:56;;;;;;;5.33;1.70;;;5.90;99.90;;;;;;5119371;29;20198;-47
2022/01/17 06:15:27;;;;;;;16.50;2.07;;;5.80;99.90;;;;;;5104424;29;20243;-47
2022/01/17 06:17:58;;;;;;;12.30;1.80;;;5.80;99.90;;;;;;5118838;28;20498;-48
2022/01/17 06:20:28;;;;;;;4.83;1.80;;;5.80;99.90;;;;;;5122654;28;20955;-48
2022/01/17 06:22:59;;;;;;;1.50;1.20;;;5.80;99.90;;;;;;5127326;28;20183;-48
2022/01/17 06:25:30;;;;;;;15.33;2.27;;;5.80;99.90;;;;;;5124500;29;20268;-47
2022/01/17 06:28:00;;;;;;;8.73;2.17;;;5.80;99.90;;;;;;5124239;28;20224;-48
2022/01/17 06:30:31;;;;;;;4.57;1.23;;;5.80;99.90;;;;;;5122726;29;20179;-47
2022/01/17 06:33:03;;;;;;;5.20;2.40;;;5.70;99.90;;;;;;5118068;29;20206;-49
2022/01/17 06:35:34;;;;;;;5.20;2.40;;;5.70;99.90;;;;;;5107251;29;20184;-48
2022/01/17 06:38:04;;;;;;;2.30;1.23;;;5.70;99.90;;;;;;5082944;29;21049;-53
2022/01/17 06:40:35;;;;;;;7.67;1.30;;;5.70;99.90;;;;;;5095713;29;20442;-48
2022/01/17 06:43:08;;;;;;;5.00;1.83;;;5.70;99.90;;;;;;5083178;29;20187;-46
2022/01/17 06:45:40;;;;;;;17.97;1.90;;;5.60;99.90;;;;;;5102617;29;20217;-47
2022/01/17 06:48:11;;;;;;;18.53;2.40;;;5.50;99.90;;;;;;5106294;29;20457;-48
2022/01/17 06:50:42;;;;;;;5.37;2.03;;;5.50;99.90;;;;;;5101799;29;20448;-48
2022/01/17 06:53:12;;;;;;;4.00;1.13;;;5.60;99.90;;;;;;5104340;29;20198;-49
2022/01/17 06:55:43;;;;;;;12.00;1.50;;;5.50;99.90;;;;;;5100211;29;20181;-50
2022/01/17 06:58:13;;;;;;;4.17;1.87;;;5.60;99.90;;;;;;5082564;29;20277;-47
2022/01/17 07:00:44;;;;;;;3.47;1.40;;;5.60;99.90;;;;;;5086965;29;20272;-47
2022/01/17 07:03:15;;;;;;;11.30;2.00;;;5.50;99.90;;;;;;5109675;29;20224;-47
2022/01/17 07:05:46;;;;;;;3.20;2.30;;;5.50;99.90;;;;;;5098170;29;20441;-50
2022/01/17 07:08:16;;;;;;;7.10;1.40;;;5.40;99.90;;;;;;5098019;29;20220;-49
2022/01/17 07:10:47;;;;;;;3.23;1.20;;;5.40;99.90;;;;;;5096624;29;20271;-49
2022/01/17 07:13:17;;;;;;;5.53;1.87;;;5.40;99.90;;;;;;5087082;29;20311;-50
2022/01/17 07:15:48;;;;;;;8.60;2.13;;;5.40;99.90;;;;;;5087457;29;20670;-49
2022/01/17 07:18:19;;;;;;;6.63;1.43;;;5.40;99.90;;;;;;5098902;29;20219;-48
2022/01/17 07:20:49;;;;;;;11.53;2.17;;;5.40;99.90;;;;;;5102902;29;20286;-49
2022/01/17 07:23:20;;;;;;;12.33;1.60;;;5.40;99.90;;;;;;5100036;29;20238;-49
2022/01/17 07:25:50;;;;;;;4.20;1.97;;;5.30;99.90;;;;;;5081703;29;20207;-49
2022/01/17 07:28:21;;;;;;;4.40;1.57;;;5.40;99.90;;;;;;5096349;29;20660;-49
2022/01/17 07:30:51;;;;;;;6.60;1.80;;;5.40;99.90;;;;;;5085113;29;20192;-48
2022/01/17 07:33:24;;;;;;;13.30;1.30;;;5.40;99.90;;;;;;5101866;29;20199;-49
2022/01/17 07:35:54;;;;;;;5.80;1.50;;;5.40;99.90;;;;;;5081230;29;20247;-47
2022/01/17 07:38:25;;;;;;;6.17;1.73;;;5.40;99.90;;;;;;5114599;29;20573;-48
2022/01/17 07:40:55;;;;;;;5.27;2.20;;;5.40;99.90;;;;;;5121119;29;20186;-50
2022/01/17 07:43:26;;;;;;;5.00;1.50;;;5.50;99.90;;;;;;5123309;28;20198;-48
2022/01/17 07:46:05;;;;;;;4.83;1.40;;;5.50;99.90;;;;;;5121567;28;20279;-48
2022/01/17 07:48:57;;;;;;;3.03;1.77;;;5.60;99.90;;;;;;5122041;29;20583;-48
2022/01/17 07:51:28;;;;;;;4.97;2.20;;;5.70;99.90;;;;;;5120841;29;20543;-49
2022/01/17 07:53:58;;;;;;;7.87;1.77;;;5.60;99.90;;;;;;5104363;29;20541;-49
2022/01/17 07:56:30;;;;;;;9.50;1.50;;;5.60;99.90;;;;;;5107250;29;20216;-49
2022/01/17 07:59:01;;;;;;;3.90;1.80;;;5.60;99.90;;;;;;5123559;28;20227;-49
2022/01/17 08:01:31;;;;;;;19.27;3.90;;;5.70;99.90;;;;;;5120724;29;20445;-49
2022/01/17 08:04:06;;;;;;;11.20;2.13;;;5.70;99.90;;;;;;5120359;29;20181;-48
2022/01/17 08:06:39;;;;;;;3.87;2.33;;;5.70;99.90;;;;;;5111482;28;20653;-48
2022/01/17 08:09:20;;;;;;;8.13;2.60;;;5.80;99.90;;;;;;5106283;29;20457;-49
2022/01/17 08:11:51;;;;;;;6.63;1.50;;;5.70;99.90;;;;;;5122423;29;20451;-49
2022/01/17 08:14:23;;;;;;;2.10;1.20;;;5.70;99.90;;;;;;5127212;29;20441;-48
2022/01/17 08:16:54;;;;;;;5.23;1.77;;;5.70;99.90;;;;;;5124255;28;20460;-49
2022/01/17 08:19:25;;;;;;;5.97;2.40;;;5.70;99.90;;;;;;5125367;29;20496;-48
2022/01/17 08:21:56;;;;;;;11.67;1.67;;;5.70;99.90;;;;;;5108055;29;20184;-49
2022/01/17 08:24:27;;;;;;;5.53;1.47;;;5.70;99.90;;;;;;5120420;29;20179;-48
2022/01/17 08:26:58;;;;;;;7.40;1.67;;;5.70;99.90;;;;;;5125500;28;20458;-50
2022/01/17 08:29:29;;;;;;;5.77;1.90;;;5.70;99.90;;;;;;5125810;29;20439;-49
2022/01/17 08:32:03;;;;;;;5.83;1.33;;;5.70;99.90;;;;;;5120639;29;20445;-50
2022/01/17 08:34:34;;;;;;;4.57;1.30;;;5.70;99.90;;;;;;5119564;28;20196;-50
2022/01/17 08:37:05;;;;;;;3.90;1.67;;;5.70;99.90;;;;;;5124574;28;20486;-49
2022/01/17 08:39:35;;;;;;;3.37;1.90;;;5.70;99.90;;;;;;5119184;29;20844;-51
2022/01/17 08:42:10;;;;;;;5.70;1.80;;;5.70;99.90;;;;;;5122820;29;20890;-49
2022/01/17 08:44:49;;;;;;;7.90;1.77;;;5.70;99.90;;;;;;5125413;29;20229;-49
2022/01/17 08:47:20;;;;;;;4.67;1.50;;;5.80;99.90;;;;;;5123172;28;20451;-50
2022/01/17 08:49:51;;;;;;;1.90;1.30;;;5.80;99.90;;;;;;5106416;29;20524;-50
2022/01/17 08:52:22;;;;;;;3.23;1.27;;;5.80;99.90;;;;;;5125099;29;20441;-50
2022/01/17 08:54:53;;;;;;;5.33;1.47;;;5.90;99.90;;;;;;5126465;29;20512;-50
2022/01/17 08:57:25;;;;;;;6.77;1.37;;;6.00;99.90;;;;;;5105156;29;20212;-51
2022/01/17 08:59:57;;;;;;;7.77;1.10;;;6.00;99.90;;;;;;5127743;29;20471;-50
2022/01/17 09:02:27;;;;;;;9.40;1.57;;;6.10;99.90;;;;;;5115550;29;20557;-50
2022/01/17 09:04:58;;;;;;;3.03;2.00;;;6.10;99.90;;;;;;5119032;29;20526;-51
2022/01/17 09:07:29;;;;;;;1.53;1.10;;;6.20;99.90;;;;;;5118638;28;20264;-50
2022/01/17 09:09:59;;;;;;;2.63;1.03;;;6.10;99.90;;;;;;5119003;29;20529;-50
2022/01/17 09:12:30;;;;;;;2.83;0.97;;;6.10;99.90;;;;;;5118484;29;20219;-50
2022/01/17 09:15:01;;;;;;;2.40;2.20;;;6.20;99.90;;;;;;5116727;29;20223;-49
2022/01/17 09:17:32;;;;;;;3.93;1.03;;;6.10;99.90;;;;;;5114836;29;20290;-50
2022/01/17 09:20:04;;;;;;;3.13;0.53;;;6.00;99.90;;;;;;5113538;29;21855;-50
2022/01/17 09:22:34;;;;;;;1.90;1.00;;;6.00;99.90;;;;;;5116760;28;20252;-49
2022/01/17 09:25:06;;;;;;;2.27;1.20;;;6.00;99.90;;;;;;5087050;29;20462;-50
2022/01/17 09:27:37;;;;;;;7.00;1.33;;;6.00;99.90;;;;;;5120518;28;20768;-49
2022/01/17 09:30:12;;;;;;;7.50;1.60;;;6.00;99.90;;;;;;5119432;29;22044;-50
2022/01/17 09:32:42;;;;;;;2.60;1.20;;;5.90;99.90;;;;;;5104279;29;20439;-50
2022/01/17 09:35:13;;;;;;;7.50;1.30;;;5.80;99.90;;;;;;5122522;28;20439;-48
2022/01/17 09:37:44;;;;;;;1.67;1.43;;;5.80;99.90;;;;;;5097317;29;20704;-50
2022/01/17 09:40:14;;;;;;;1.43;1.13;;;5.80;99.90;;;;;;5101233;29;20359;-49
2022/01/17 09:42:46;;;;;;;2.37;1.77;;;5.70;99.90;;;;;;5108041;29;20193;-49
2022/01/17 09:45:19;;;;;;;7.70;1.70;;;5.70;99.90;;;;;;5098976;29;20188;-49
2022/01/17 09:47:50;;;;;;;6.10;2.00;;;5.70;99.90;;;;;;5104338;29;20847;-48
2022/01/17 09:50:32;;;;;;;10.50;2.93;;;5.70;99.90;;;;;;5104416;29;20448;-49
2022/01/17 09:53:03;;;;;;;1.13;0.80;;;5.70;99.90;;;;;;5104544;29;20524;-47
2022/01/17 09:55:36;;;;;;;9.23;1.23;;;5.50;99.90;;;;;;5104387;29;20505;-48
2022/01/17 09:58:09;;;;;;;9.20;1.43;;;5.30;99.90;;;;;;5107234;29;20215;-48
2022/01/17 10:00:43;;;;;;;5.13;1.50;;;5.20;99.90;;;;;;5099544;29;20508;-48
2022/01/17 10:03:17;;;;;;;6.03;1.70;;;5.10;99.90;;;;;;5102153;29;20826;-49
2022/01/17 10:05:47;;;;;;;3.70;1.33;;;5.00;99.90;;;;;;5103547;29;20455;-49
2022/01/17 10:08:20;;;;;;;8.70;1.70;;;4.90;99.90;;;;;;5105619;29;20913;-49
2022/01/17 10:11:04;;;;;;;3.50;1.27;;;5.00;99.90;;;;;;5105821;29;20654;-49
2022/01/17 10:13:38;;;;;;;3.77;1.33;;;5.10;99.90;;;;;;5086214;29;20442;-47
2022/01/17 10:16:20;;;;;;;12.57;2.53;;;5.20;99.90;;;;;;5104442;29;20440;-49
2022/01/17 10:19:03;;;;;;;3.50;1.20;;;5.20;99.90;;;;;;5101416;29;20516;-49
2022/01/17 10:21:54;;;;;;;9.70;1.87;;;5.20;99.90;;;;;;5104901;29;20445;-48
2022/01/17 10:27:27;;;;;;;7.73;1.73;;;5.30;99.90;;;;;;5105364;29;20522;-49
2022/01/17 10:35:39;;;;;;;17.00;2.73;;;5.20;99.90;;;;;;5102340;29;20487;-48
2022/01/17 10:38:21;;;;;;;6.33;1.77;;;5.20;99.90;;;;;;5107982;28;20966;-49
2022/01/17 10:41:01;;;;;;;7.53;2.27;;;5.20;99.90;;;;;;5100676;29;20602;-48
2022/01/17 10:43:35;;;;;;;9.13;2.00;;;5.20;99.90;;;;;;5120727;29;20446;-49
2022/01/17 10:46:11;;;;;;;10.97;2.20;;;5.30;99.90;;;;;;5106410;29;20471;-47
2022/01/17 10:48:44;;;;;;;13.60;2.30;;;5.20;99.90;;;;;;5117458;28;20460;-49
2022/01/17 10:51:15;;;;;;;8.73;2.03;;;5.20;99.90;;;;;;5107833;29;20448;-48
2022/01/17 10:53:50;;;;;;;9.70;2.27;;;5.10;99.90;;;;;;5125019;29;21167;-48
2022/01/17 10:56:24;;;;;;;14.13;2.60;;;4.90;99.90;;;;;;5125883;29;20431;-49
2022/01/17 10:59:04;;;;;;;5.50;1.90;;;4.70;99.90;;;;;;5124292;28;20481;-47
2022/01/17 11:01:36;;;;;;;14.73;2.37;;;4.50;99.90;;;;;;5106832;29;20432;-48
2022/01/17 11:04:09;;;;;;;10.77;2.80;;;4.50;99.90;;;;;;5104629;28;20790;-48
2022/01/17 11:06:47;;;;;;;19.33;2.60;;;4.30;99.90;;;;;;5118187;28;20453;-49
2022/01/17 11:09:22;;;;;;;7.53;2.00;;;4.20;99.90;;;;;;5122427;29;20820;-49
2022/01/17 11:11:52;;;;;;;2.20;1.30;;;3.90;99.90;;;;;;5119223;29;20589;-48
2022/01/17 11:14:23;;;;;;;6.67;2.00;;;3.60;99.90;;;;;;5121622;29;20577;-49
2022/01/17 11:16:54;;;;;;;9.80;1.87;;;3.40;99.90;;;;;;5118083;28;20217;-49
2022/01/17 11:22:14;;;;;;;4.83;2.63;;;3.00;99.90;;;;;;5117789;28;20318;-49
2022/01/17 11:24:44;;;;;;;16.43;2.67;;;2.80;99.90;;;;;;5120651;28;20434;-49
2022/01/17 11:27:15;;;;;;;15.30;2.80;;;2.60;99.90;;;;;;5122276;28;20453;-49
2022/01/17 11:29:49;;;;;;;17.50;2.33;;;2.70;99.90;;;;;;5123984;29;20190;-48
2022/01/17 11:32:20;;;;;;;19.13;2.90;;;2.50;99.90;;;;;;5121801;29;20957;-49
2022/01/17 11:34:57;;;;;;;13.43;2.33;;;2.50;99.90;;;;;;5121236;29;20434;-50
2022/01/17 11:37:34;;;;;;;16.77;3.10;;;2.60;99.90;;;;;;5122905;28;20216;-49
2022/01/17 11:40:07;;;;;;;6.43;2.20;;;2.70;99.90;;;;;;5107130;29;20470;-48
2022/01/17 11:42:47;;;;;;;13.73;2.63;;;2.70;99.90;;;;;;5089800;29;20867;-49
2022/01/17 11:45:23;;;;;;;13.40;3.70;;;2.60;99.90;;;;;;5129510;28;20473;-49
2022/01/17 11:48:00;;;;;;;21.07;3.77;;;2.50;99.90;;;;;;5104002;28;20465;-49
2022/01/17 11:50:36;;;;;;;16.20;3.00;;;2.50;99.90;;;;;;5127708;28;20453;-49
2022/01/17 11:53:09;;;;;;;7.77;2.57;;;2.60;99.90;;;;;;5128338;29;20522;-50
2022/01/17 11:55:46;;;;;;;16.90;6.50;;;2.60;99.90;;;;;;5114108;29;20434;-49
2022/01/17 11:58:26;;;;;;;14.00;3.70;;;2.60;99.90;;;;;;5116871;28;20461;-49
2022/01/17 12:00:57;;;;;;;12.27;2.80;;;2.60;99.90;;;;;;5127452;28;20736;-50
2022/01/17 12:03:42;;;;;;;13.10;4.63;;;2.60;99.90;;;;;;5130452;29;20459;-49
2022/01/17 12:06:32;;;;;;;10.60;2.57;;;2.60;99.90;;;;;;5125574;28;20186;-49
2022/01/17 12:09:22;;;;;;;7.73;1.97;;;2.70;99.90;;;;;;5126576;29;21015;-50
2022/01/17 12:11:55;;;;;;;14.37;3.00;;;2.60;99.90;;;;;;5128331;28;20449;-50
2022/01/17 12:14:41;;;;;;;9.10;2.40;;;2.60;99.90;;;;;;5124937;29;20452;-50
2022/01/17 12:17:25;;;;;;;10.10;2.53;;;2.60;99.90;;;;;;5106586;29;20517;-50
2022/01/17 12:20:09;;;;;;;12.97;4.73;;;2.80;99.90;;;;;;5122355;29;20469;-50
2022/01/17 12:22:40;;;;;;;8.47;2.33;;;2.70;99.90;;;;;;5123134;29;20943;-49
2022/01/17 12:25:31;;;;;;;8.80;2.30;;;3.00;99.90;;;;;;5125415;28;20496;-50
2022/01/17 12:28:05;;;;;;;6.83;2.37;;;3.10;99.90;;;;;;5113497;29;20202;-49
2022/01/17 12:30:40;;;;;;;9.27;2.03;;;3.20;99.90;;;;;;5123263;28;20441;-50
2022/01/17 12:33:34;;;;;;;8.87;2.33;;;3.40;99.90;;;;;;5126834;29;20532;-50
2022/01/17 12:36:25;;;;;;;8.70;2.50;;;3.60;99.90;;;;;;5098454;29;20525;-49
2022/01/17 12:39:17;;;;;;;9.20;2.50;;;3.80;99.90;;;;;;5124726;29;20480;-50
2022/01/17 12:41:52;;;;;;;10.30;1.80;;;4.00;99.90;;;;;;5120874;29;20862;-49
2022/01/17 12:44:23;;;;;;;6.17;2.33;;;4.10;99.90;;;;;;5126982;29;20583;-51
2022/01/17 12:47:00;;;;;;;9.07;1.93;;;4.20;99.90;;;;;;5127480;28;20473;-49
2022/01/17 12:49:31;;;;;;;3.50;1.90;;;4.30;99.90;;;;;;5128688;28;20866;-51
2022/01/17 12:52:02;;;;;;;11.53;3.43;;;4.30;99.90;;;;;;5126667;28;20433;-50
2022/01/17 12:54:33;;;;;;;6.83;2.13;;;4.50;99.90;;;;;;5127525;28;20815;-49
2022/01/17 12:57:04;;;;;;;6.10;2.40;;;4.60;99.90;;;;;;5106769;29;20463;-52
2022/01/17 12:59:34;;;;;;;4.47;1.60;;;4.70;99.90;;;;;;5126138;28;20220;-49
2022/01/17 13:02:05;;;;;;;11.93;1.77;;;4.80;99.90;;;;;;5091468;29;20512;-50
2022/01/17 13:04:35;;;;;;;4.70;2.40;;;4.80;99.90;;;;;;5108388;29;20179;-51
2022/01/17 13:07:07;;;;;;;31.60;3.10;;;4.90;99.90;;;;;;5124748;29;20316;-49
2022/01/17 13:09:40;;;;;;;6.23;2.67;;;4.70;99.90;;;;;;5124796;29;20654;-49
2022/01/17 13:12:10;;;;;;;4.37;1.30;;;4.60;99.90;;;;;;5123273;29;20433;-49
2022/01/17 13:14:41;;;;;;;5.23;2.67;;;4.40;99.90;;;;;;5093566;29;20435;-48
2022/01/17 13:17:12;;;;;;;7.13;2.13;;;4.30;99.90;;;;;;5107247;28;20213;-51
2022/01/17 13:19:42;;;;;;;5.23;2.13;;;4.20;99.90;;;;;;5123970;29;20241;-50
2022/01/17 13:22:16;;;;;;;7.43;3.77;;;4.10;99.90;;;;;;5124916;28;20311;-50
2022/01/17 13:24:55;;;;;;;6.17;2.10;;;4.00;99.90;;;;;;5106162;29;20184;-49
2022/01/17 13:27:25;;;;;;;3.67;2.07;;;3.90;99.90;;;;;;5097601;29;20552;-49
2022/01/17 13:29:56;;;;;;;2.20;1.77;;;3.90;99.90;;;;;;5120740;29;20557;-50
2022/01/17 13:32:34;;;;;;;3.80;1.70;;;4.00;99.90;;;;;;5121462;28;20187;-50
2022/01/17 13:35:11;;;;;;;25.43;3.37;;;4.00;99.90;;;;;;5123076;29;20186;-51
2022/01/17 13:37:42;;;;;;;7.20;2.20;;;4.00;99.90;;;;;;5124829;29;20482;-51
2022/01/17 13:40:16;;;;;;;8.83;1.90;;;4.00;99.90;;;;;;5122066;29;20989;-50
2022/01/17 13:42:58;;;;;;;7.83;1.57;;;4.00;99.90;;;;;;5104272;29;20679;-50
2022/01/17 13:45:34;;;;;;;3.60;2.10;;;4.00;99.90;;;;;;5121334;28;20521;-49
2022/01/17 13:48:16;;;;;;;11.70;3.13;;;4.00;99.90;;;;;;5122433;28;20472;-48
2022/01/17 13:50:53;;;;;;;7.67;1.93;;;4.00;99.90;;;;;;5122287;29;20436;-48
2022/01/17 13:53:26;;;;;;;3.80;1.57;;;4.10;99.90;;;;;;5124853;28;20441;-48